Time;durP1;ratioP1;P1;durP2;ratioP2;P2;SDS_P1;SDS_P2;PMS_P1;PMS_P2;Temp;Humidity;BMP_temperature;BMP_pressure;BME280_temperature;BME280_humidity;BME280_pressure;Samples;Min_cycle;Max_cycle;Signal;HPM_P1;HPM_P2
2022/10/21 00:01:24;;;;;;;4.95;1.75;;;;;;;6.76;86.62;101875.84;5054472;28;20083;-69
2022/10/21 00:03:50;;;;;;;4.78;1.98;;;;;;;6.98;86.03;101877.50;5052845;28;20482;-69
2022/10/21 00:06:15;;;;;;;7.47;1.95;;;;;;;7.05;85.50;101878.91;5054095;28;20492;-69
2022/10/21 00:08:43;;;;;;;4.05;1.73;;;;;;;6.99;85.38;101871.19;5052624;28;20032;-69
2022/10/21 00:11:09;;;;;;;8.57;1.95;;;;;;;6.89;85.77;101876.13;5053415;28;20051;-67
2022/10/21 00:13:38;;;;;;;5.50;1.73;;;;;;;6.87;85.76;101875.31;5054045;28;20029;-68
2022/10/21 00:16:16;;;;;;;6.53;2.13;;;;;;;7.10;84.11;101871.56;5052514;28;20036;-69
2022/10/21 00:18:45;;;;;;;5.47;1.92;;;;;;;7.01;84.36;101880.00;5052328;28;20048;-69
2022/10/21 00:21:18;;;;;;;4.55;1.85;;;;;;;6.84;85.66;101870.97;5053444;28;20021;-69
2022/10/21 00:23:44;;;;;;;3.95;1.88;;;;;;;6.84;85.71;101865.63;5052028;28;20032;-68
2022/10/21 00:26:12;;;;;;;5.07;1.67;;;;;;;6.90;85.25;101868.03;5052070;28;20029;-69
2022/10/21 00:28:38;;;;;;;4.38;1.75;;;;;;;7.10;82.68;101868.88;5053509;28;20064;-71
2022/10/21 00:31:08;;;;;;;1.92;1.23;;;;;;;6.98;83.21;101865.00;5051913;28;20468;-69
2022/10/21 00:33:35;;;;;;;2.50;1.10;;;;;;;7.00;82.35;101862.22;5053338;28;20037;-70
2022/10/21 00:36:01;;;;;;;2.45;1.17;;;;;;;7.07;82.12;101874.41;5052691;28;20044;-67
2022/10/21 00:38:28;;;;;;;7.22;1.17;;;;;;;7.05;82.11;101870.91;5052933;28;20029;-69
2022/10/21 00:40:54;;;;;;;2.25;1.30;;;;;;;7.08;81.61;101870.78;5052060;28;20033;-69
2022/10/21 00:43:20;;;;;;;6.85;1.50;;;;;;;7.13;81.14;101871.41;5053148;28;20037;-70
2022/10/21 00:45:50;;;;;;;2.35;1.23;;;;;;;7.22;80.44;101868.28;5053088;28;20021;-68
2022/10/21 00:48:32;;;;;;;2.10;1.00;;;;;;;7.23;80.11;101864.69;5053424;28;20044;-69
2022/10/21 00:51:11;;;;;;;4.05;1.38;;;;;;;7.21;80.22;101866.53;5053237;28;20029;-68
2022/10/21 00:53:41;;;;;;;1.80;0.80;;;;;;;7.30;79.29;101863.44;5051746;28;20443;-69
2022/10/21 00:56:11;;;;;;;1.88;0.90;;;;;;;7.41;77.61;101855.75;5051997;28;20025;-68
2022/10/21 00:58:38;;;;;;;4.50;0.95;;;;;;;7.57;75.22;101846.97;5053019;28;20474;-68
2022/10/21 01:01:06;;;;;;;3.60;1.17;;;;;;;7.65;74.90;101844.75;5053231;28;20112;-67
2022/10/21 01:03:34;;;;;;;2.63;0.90;;;;;;;7.64;74.90;101835.00;5052105;28;20032;-69
2022/10/21 01:06:02;;;;;;;1.55;0.90;;;;;;;7.74;73.34;101834.47;5051962;28;20087;-67
2022/10/21 01:08:29;;;;;;;2.28;0.80;;;;;;;7.72;74.14;101830.09;5051484;28;20203;-67
2022/10/21 01:10:55;;;;;;;2.42;0.90;;;;;;;7.59;74.90;101831.69;5052834;28;20029;-67
2022/10/21 01:13:50;;;;;;;3.10;0.77;;;;;;;7.53;75.94;101840.88;5051402;28;20028;-69
2022/10/21 01:16:48;;;;;;;4.88;0.90;;;;;;;7.59;75.69;101839.72;5051555;28;20037;-67
2022/10/21 01:19:26;;;;;;;4.53;1.15;;;;;;;7.67;75.84;101837.50;5047880;28;20123;-68
2022/10/21 01:22:29;;;;;;;2.33;0.70;;;;;;;7.63;75.53;101842.16;5052358;28;20040;-68
2022/10/21 01:25:29;;;;;;;0.93;0.60;;;;;;;7.67;74.03;101840.19;5052481;28;20104;-67
2022/10/21 01:28:15;;;;;;;3.13;1.25;;;;;;;7.62;74.27;101828.84;5051046;28;20025;-67
2022/10/21 01:30:44;;;;;;;3.53;0.90;;;;;;;7.59;74.48;101829.00;5051094;28;20082;-67
2022/10/21 01:33:18;;;;;;;4.25;0.90;;;;;;;7.53;75.57;101831.03;5051924;28;20033;-67
2022/10/21 01:36:00;;;;;;;4.53;1.10;;;;;;;7.51;76.05;101838.28;5052333;28;20029;-67
2022/10/21 01:38:37;;;;;;;2.22;0.98;;;;;;;7.49;76.16;101840.16;5052239;28;20037;-68
2022/10/21 01:41:08;;;;;;;1.98;1.13;;;;;;;7.50;77.23;101841.91;5052261;28;20563;-68
2022/10/21 01:43:55;;;;;;;3.42;1.45;;;;;;;7.44;77.79;101834.19;5051506;28;20025;-67
2022/10/21 01:46:29;;;;;;;3.83;1.50;;;;;;;7.41;78.15;101833.50;5052221;28;20064;-66
2022/10/21 01:49:03;;;;;;;5.05;1.20;;;;;;;7.37;78.70;101834.56;5050666;28;20437;-67
2022/10/21 01:51:30;;;;;;;4.82;1.33;;;;;;;7.43;78.41;101835.13;5051071;28;20118;-67
2022/10/21 01:54:11;;;;;;;3.88;1.05;;;;;;;7.46;78.78;101832.31;5051884;28;20048;-68
2022/10/21 01:56:39;;;;;;;1.88;1.00;;;;;;;7.37;78.67;101830.06;5050819;28;20028;-67
2022/10/21 01:59:07;;;;;;;3.65;1.08;;;;;;;7.43;79.24;101829.78;5050511;28;20040;-66
2022/10/21 02:01:34;;;;;;;6.13;1.23;;;;;;;7.42;79.42;101822.69;5050642;28;20029;-67
2022/10/21 02:04:02;;;;;;;3.38;1.35;;;;;;;7.41;79.79;101817.44;5050804;28;20492;-67
2022/10/21 02:06:28;;;;;;;2.83;1.30;;;;;;;7.42;79.96;101820.03;5050734;28;20053;-68
2022/10/21 02:08:54;;;;;;;4.35;1.08;;;;;;;7.31;79.96;101813.47;5051850;28;20064;-67
2022/10/21 02:11:20;;;;;;;1.30;0.93;;;;;;;7.17;81.20;101811.47;5051652;28;20112;-68
2022/10/21 02:14:04;;;;;;;2.28;1.30;;;;;;;7.10;81.81;101804.72;5051851;28;20566;-67
2022/10/21 02:16:34;;;;;;;4.05;1.15;;;;;;;6.99;82.80;101791.84;5050703;28;20044;-67
2022/10/21 02:19:00;;;;;;;2.80;1.27;;;;;;;6.93;82.59;101794.84;5051987;28;20032;-67
2022/10/21 02:21:32;;;;;;;4.43;1.15;;;;;;;7.05;83.35;101793.34;5052024;28;20116;-68
2022/10/21 02:24:07;;;;;;;2.17;1.20;;;;;;;6.93;84.47;101792.16;5051866;28;20032;-67
2022/10/21 02:26:32;;;;;;;2.05;1.38;;;;;;;6.94;84.39;101783.19;5050466;28;20040;-67
2022/10/21 02:29:00;;;;;;;5.32;1.23;;;;;;;6.97;84.64;101787.53;5050363;28;20060;-67
2022/10/21 02:32:09;;;;;;;5.63;1.75;;;;;;;6.87;85.13;101785.28;5052195;28;20545;-67
2022/10/21 02:34:54;;;;;;;3.10;1.27;;;;;;;6.78;85.26;101785.75;5029418;28;20036;-67
2022/10/21 02:37:42;;;;;;;2.28;1.10;;;;;;;6.64;85.93;101785.53;5013131;28;20123;-66
2022/10/21 02:40:28;;;;;;;4.95;1.23;;;;;;;6.69;86.00;101778.16;5040151;28;20029;-67
2022/10/21 02:42:59;;;;;;;2.83;1.15;;;;;;;6.55;86.65;101780.59;5052268;28;20137;-67
2022/10/21 02:45:26;;;;;;;4.30;1.52;;;;;;;6.47;87.19;101789.00;5050107;28;20036;-66
2022/10/21 02:47:52;;;;;;;4.15;1.15;;;;;;;6.41;87.96;101788.44;5051692;28;20033;-68
2022/10/21 02:50:18;;;;;;;5.78;1.58;;;;;;;6.29;88.34;101790.72;5051431;28;20104;-68
2022/10/21 02:52:43;;;;;;;3.45;1.35;;;;;;;6.19;88.60;101778.69;5049929;28;20198;-67
2022/10/21 02:55:09;;;;;;;4.55;1.48;;;;;;;6.21;88.59;101784.84;5049804;28;20025;-67
2022/10/21 02:57:35;;;;;;;7.80;1.85;;;;;;;6.27;88.12;101781.91;5050011;28;20025;-66
2022/10/21 03:00:00;;;;;;;2.17;1.30;;;;;;;6.30;87.13;101781.75;5051421;28;20037;-65
2022/10/21 03:02:26;;;;;;;7.95;1.58;;;;;;;6.31;87.28;101790.63;5055168;28;20086;-67
2022/10/21 03:04:55;;;;;;;2.55;1.50;;;;;;;6.36;86.72;101795.75;5054006;28;20040;-67
2022/10/21 03:07:21;;;;;;;6.68;1.40;;;;;;;6.37;86.41;101789.47;5053438;28;20119;-67
2022/10/21 03:09:47;;;;;;;3.28;1.55;;;;;;;6.39;86.19;101790.31;5053486;28;20120;-67
2022/10/21 03:12:13;;;;;;;2.45;1.38;;;;;;;6.21;87.25;101783.97;5054769;28;20108;-67
2022/10/21 03:14:38;;;;;;;3.83;1.60;;;;;;;6.09;87.77;101782.75;5054799;28;20112;-66
2022/10/21 03:17:04;;;;;;;3.25;1.70;;;;;;;6.08;88.57;101781.03;5054640;28;20033;-66
2022/10/21 03:19:30;;;;;;;4.55;1.20;;;;;;;6.13;88.14;101781.66;5055056;28;20200;-67
2022/10/21 03:21:55;;;;;;;3.42;1.90;;;;;;;6.09;88.11;101777.41;5054613;28;20029;-66
2022/10/21 03:24:21;;;;;;;7.97;1.45;;;;;;;6.04;89.02;101787.41;5053282;28;20056;-67
2022/10/21 03:26:46;;;;;;;5.07;1.58;;;;;;;6.12;88.52;101784.41;5054842;28;20143;-68
2022/10/21 03:29:12;;;;;;;5.32;2.10;;;;;;;6.10;88.90;101787.16;5054351;28;20036;-67
2022/10/21 03:31:38;;;;;;;5.72;1.70;;;;;;;6.15;88.80;101787.81;5054621;28;20025;-68
2022/10/21 03:34:03;;;;;;;6.97;2.08;;;;;;;6.14;88.64;101794.06;5054437;28;20032;-67
2022/10/21 03:36:29;;;;;;;5.22;1.52;;;;;;;6.15;88.87;101786.94;5054357;28;20421;-67
2022/10/21 03:38:54;;;;;;;4.38;1.40;;;;;;;6.16;88.85;101786.88;5054491;28;20401;-68
2022/10/21 03:41:21;;;;;;;3.95;2.08;;;;;;;6.11;89.27;101796.91;5053900;28;20025;-66
2022/10/21 03:43:47;;;;;;;4.40;1.90;;;;;;;6.12;90.13;101787.09;5053996;28;20108;-65
2022/10/21 03:46:12;;;;;;;7.18;1.85;;;;;;;6.10;90.76;101784.47;5053113;28;20581;-66
2022/10/21 03:48:38;;;;;;;6.45;1.88;;;;;;;6.04;90.06;101784.75;5054329;28;20036;-67
2022/10/21 03:51:04;;;;;;;7.00;2.00;;;;;;;6.03;90.26;101775.88;5052766;28;20482;-67
2022/10/21 03:53:29;;;;;;;5.55;1.80;;;;;;;5.92;90.25;101779.97;5053762;28;20056;-67
2022/10/21 03:55:55;;;;;;;6.60;2.10;;;;;;;5.85;90.62;101773.13;5054133;28;20044;-67
2022/10/21 03:58:20;;;;;;;4.38;2.00;;;;;;;5.85;91.42;101779.31;5052616;28;20656;-66
2022/10/21 04:00:51;;;;;;;6.38;2.20;;;;;;;5.89;90.85;101774.75;5053685;28;20036;-68
2022/10/21 04:03:17;;;;;;;4.65;2.10;;;;;;;5.82;91.32;101767.94;5052423;28;20029;-67
2022/10/21 04:05:43;;;;;;;5.97;2.00;;;;;;;5.74;91.21;101765.59;5053731;28;20470;-67
2022/10/21 04:08:08;;;;;;;4.32;1.60;;;;;;;5.63;91.59;101763.41;5053692;28;20474;-69
2022/10/21 04:10:34;;;;;;;7.45;2.05;;;;;;;5.56;91.58;101761.94;5054118;28;20032;-68
2022/10/21 04:12:59;;;;;;;4.25;1.63;;;;;;;5.48;92.31;101764.06;5051871;28;20558;-68
2022/10/21 04:15:26;;;;;;;2.28;1.30;;;;;;;5.42;92.22;101759.00;5053833;28;20430;-67
2022/10/21 04:17:51;;;;;;;6.30;2.20;;;;;;;5.43;92.56;101760.72;5053727;28;20063;-67
2022/10/21 04:20:17;;;;;;;5.88;1.98;;;;;;;5.33;92.70;101764.72;5053207;28;20081;-69
2022/10/21 04:22:43;;;;;;;3.83;1.90;;;;;;;5.31;93.15;101769.25;5053299;28;20040;-71
2022/10/21 04:25:08;;;;;;;5.40;2.30;;;;;;;5.32;93.74;101766.50;5053470;28;20086;-67
2022/10/21 04:27:34;;;;;;;4.82;2.00;;;;;;;5.29;93.58;101763.09;5051724;28;20125;-68
2022/10/21 04:30:00;;;;;;;4.45;2.05;;;;;;;5.30;93.41;101770.19;5051761;28;20029;-67
2022/10/21 04:32:25;;;;;;;6.65;2.28;;;;;;;5.27;93.76;101759.66;5053073;28;20119;-67
2022/10/21 04:34:51;;;;;;;6.00;2.00;;;;;;;5.32;93.42;101758.50;5053095;28;20486;-68
2022/10/21 04:37:17;;;;;;;5.78;1.90;;;;;;;5.33;93.60;101759.38;5052891;28;20052;-68
2022/10/21 04:39:42;;;;;;;3.20;1.90;;;;;;;5.34;93.29;101761.09;5052539;28;20028;-67
2022/10/21 04:42:08;;;;;;;6.28;1.98;;;;;;;5.33;93.21;101770.91;5085077;28;20036;-67
2022/10/21 04:44:36;;;;;;;11.20;2.55;;;;;;;5.37;93.03;101760.97;5053125;28;20029;-67
2022/10/21 04:47:02;;;;;;;5.70;2.03;;;;;;;5.26;93.61;101750.78;5053198;28;20382;-68
2022/10/21 04:49:27;;;;;;;3.08;1.58;;;;;;;5.34;93.22;101750.44;5052867;28;20040;-69
2022/10/21 04:51:53;;;;;;;3.05;1.65;;;;;;;5.36;93.99;101745.91;5052575;28;20036;-67
2022/10/21 04:54:19;;;;;;;5.65;2.05;;;;;;;5.36;93.92;101748.56;5052479;28;20033;-66
2022/10/21 04:56:44;;;;;;;6.28;1.85;;;;;;;5.33;94.29;101746.03;5052546;28;20032;-68
2022/10/21 04:59:10;;;;;;;6.10;2.10;;;;;;;5.22;94.61;101756.31;5050887;28;20036;-67
2022/10/21 05:01:35;;;;;;;3.92;2.33;;;;;;;5.24;94.32;101743.78;5052248;28;20024;-67
2022/10/21 05:04:01;;;;;;;6.25;1.83;;;;;;;5.19;94.62;101745.75;5050962;28;20039;-67
2022/10/21 05:06:26;;;;;;;7.43;2.97;;;;;;;5.08;95.22;101736.44;5052196;28;20107;-67
2022/10/21 05:08:52;;;;;;;6.60;2.15;;;;;;;4.99;95.16;101728.78;5052105;28;20039;-68
2022/10/21 05:11:18;;;;;;;8.82;2.40;;;;;;;4.96;95.51;101728.94;5052355;28;20079;-67
2022/10/21 05:13:44;;;;;;;5.78;2.53;;;;;;;4.98;95.67;101727.06;5051865;28;20035;-67
2022/10/21 05:16:10;;;;;;;5.45;2.28;;;;;;;5.01;95.61;101731.41;5052075;28;20036;-68
2022/10/21 05:18:36;;;;;;;12.73;3.25;;;;;;;5.10;95.65;101737.22;5050836;28;20027;-67
2022/10/21 05:21:02;;;;;;;6.60;1.90;;;;;;;5.06;95.26;101735.63;5051700;28;20032;-68
2022/10/21 05:23:28;;;;;;;5.45;2.13;;;;;;;5.27;94.20;101733.84;5051355;28;20025;-69
2022/10/21 05:25:53;;;;;;;3.33;2.05;;;;;;;5.04;94.17;101737.50;5050566;28;20025;-69
2022/10/21 05:28:20;;;;;;;4.63;2.50;;;;;;;4.93;94.17;101734.38;5051892;28;20508;-67
2022/10/21 05:30:46;;;;;;;4.32;2.03;;;;;;;4.96;94.33;101718.28;5051542;28;20032;-68
2022/10/21 05:33:12;;;;;;;8.77;2.35;;;;;;;4.94;94.87;101719.28;5051389;28;20488;-68
2022/10/21 05:35:38;;;;;;;4.38;2.10;;;;;;;4.86;94.63;101716.03;5050384;28;20116;-69
2022/10/21 05:38:04;;;;;;;14.45;3.35;;;;;;;5.00;94.24;101714.53;5049861;28;20060;-67
2022/10/21 05:40:30;;;;;;;6.00;2.80;;;;;;;4.99;94.03;101707.47;5051055;28;20025;-68
2022/10/21 05:42:56;;;;;;;9.73;2.65;;;;;;;4.98;94.32;101716.41;5049250;28;20059;-72
2022/10/21 05:45:23;;;;;;;36.95;20.88;;;;;;;4.98;94.53;101705.75;5050023;28;20120;-70
2022/10/21 05:47:48;;;;;;;23.85;13.32;;;;;;;5.18;93.74;101702.22;5051336;28;20117;-70
2022/10/21 05:50:14;;;;;;;13.82;3.70;;;;;;;5.23;92.45;101705.59;5049379;28;20477;-68
2022/10/21 05:52:40;;;;;;;3.72;2.28;;;;;;;5.33;91.80;101712.25;5050605;28;20057;-69
2022/10/21 05:55:07;;;;;;;9.43;3.17;;;;;;;5.38;91.48;101704.06;5050654;28;20419;-69
2022/10/21 05:57:34;;;;;;;4.15;1.83;;;;;;;5.30;91.46;101695.50;5049866;28;20044;-69
2022/10/21 06:00:00;;;;;;;12.63;2.65;;;;;;;5.31;91.72;101702.56;5049410;28;20040;-69
2022/10/21 06:02:25;;;;;;;7.03;2.20;;;;;;;5.36;91.05;101700.56;5049665;28;20405;-68
2022/10/21 06:04:51;;;;;;;7.70;1.95;;;;;;;5.31;91.33;101707.91;5049947;28;20037;-69
2022/10/21 06:07:17;;;;;;;9.05;2.42;;;;;;;5.30;91.57;101706.19;5050554;28;20108;-69
2022/10/21 06:09:43;;;;;;;10.35;3.13;;;;;;;5.30;91.48;101716.84;5050714;28;20037;-69
2022/10/21 06:12:08;;;;;;;7.55;2.67;;;;;;;5.36;91.48;101719.22;5049315;28;20476;-69
2022/10/21 06:14:35;;;;;;;8.63;2.40;;;;;;;5.38;91.32;101709.41;5049429;28;20406;-70
2022/10/21 06:17:04;;;;;;;8.73;2.53;;;;;;;5.38;91.58;101717.41;5050529;28;20492;-69
2022/10/21 06:19:30;;;;;;;9.65;3.03;;;;;;;5.51;91.29;101715.91;5049011;28;20036;-69
2022/10/21 06:21:57;;;;;;;13.63;3.38;;;;;;;5.48;90.98;101701.84;5048795;28;20029;-70
2022/10/21 06:24:24;;;;;;;3.85;1.80;;;;;;;5.47;91.17;101705.44;5050165;28;20029;-70
2022/10/21 06:26:51;;;;;;;7.20;2.20;;;;;;;5.39;90.62;101719.13;5049559;28;20032;-69
2022/10/21 06:29:17;;;;;;;6.22;1.92;;;;;;;5.40;91.13;101712.84;5048909;28;20037;-69
2022/10/21 06:31:44;;;;;;;6.53;2.05;;;;;;;5.39;91.00;101706.66;5050573;28;20091;-68
2022/10/21 06:34:10;;;;;;;7.80;2.53;;;;;;;5.48;91.45;101710.72;5050667;28;20078;-68
2022/10/21 06:36:37;;;;;;;11.43;2.58;;;;;;;5.58;91.54;101712.06;5053867;28;20033;-70
2022/10/21 06:39:04;;;;;;;10.68;2.92;;;;;;;5.72;90.62;101698.97;5053012;28;20029;-70
2022/10/21 06:41:30;;;;;;;6.78;3.10;;;;;;;5.80;90.67;101711.09;5054313;28;20095;-69
2022/10/21 06:43:56;;;;;;;8.18;2.65;;;;;;;5.75;90.58;101697.97;5054553;28;20453;-69
2022/10/21 06:46:23;;;;;;;9.25;3.35;;;;;;;5.80;90.17;101703.06;5053657;28;20033;-69
2022/10/21 06:48:48;;;;;;;12.77;3.55;;;;;;;5.84;90.02;101710.00;5054333;28;20059;-69
2022/10/21 06:51:21;;;;;;;13.90;3.58;;;;;;;5.92;90.22;101705.22;5052535;28;20482;-69
2022/10/21 06:53:52;;;;;;;11.90;3.35;;;;;;;6.00;89.19;101703.06;5054076;28;20045;-68
2022/10/21 06:56:18;;;;;;;5.55;2.90;;;;;;;5.99;88.80;101704.00;5052836;28;20040;-70
2022/10/21 06:58:46;;;;;;;11.65;4.65;;;;;;;5.98;88.68;101691.59;5053141;28;20055;-67
2022/10/21 07:01:22;;;;;;;10.07;3.10;;;;;;;6.18;87.92;101696.84;5054364;28;20482;-71
2022/10/21 07:03:49;;;;;;;6.57;2.85;;;;;;;6.44;86.33;101695.63;5054526;28;20025;-70
2022/10/21 07:06:15;;;;;;;8.50;2.60;;;;;;;6.53;85.32;101707.66;5053654;28;20397;-71
2022/10/21 07:08:42;;;;;;;14.13;3.28;;;;;;;6.66;85.90;101703.47;5052508;28;20038;-71
2022/10/21 07:11:09;;;;;;;9.02;2.92;;;;;;;6.72;84.94;101702.28;5052518;28;20036;-70
2022/10/21 07:13:35;;;;;;;11.02;2.90;;;;;;;6.68;84.83;101712.28;5054223;28;20029;-69
2022/10/21 07:16:16;;;;;;;13.23;3.17;;;;;;;6.74;85.85;101716.47;5052440;28;20036;-71
2022/10/21 07:18:42;;;;;;;11.73;3.30;;;;;;;6.75;85.57;101708.38;5052429;28;20064;-70
2022/10/21 07:21:10;;;;;;;15.02;3.53;;;;;;;6.77;85.87;101709.16;5053855;28;20060;-70
2022/10/21 07:23:36;;;;;;;11.93;2.72;;;;;;;6.78;85.76;101713.56;5052746;28;20071;-70
2022/10/21 07:26:04;;;;;;;12.65;3.13;;;;;;;6.89;85.08;101713.91;5052640;28;20061;-69
2022/10/21 07:28:30;;;;;;;8.60;2.85;;;;;;;6.96;83.80;101708.25;5053989;28;20028;-70
2022/10/21 07:30:56;;;;;;;11.05;2.92;;;;;;;7.20;83.02;101715.03;5054019;28;20127;-76
2022/10/21 07:33:22;;;;;;;12.48;3.22;;;;;;;7.12;82.95;101712.75;5052325;28;20127;-69
2022/10/21 07:35:47;;;;;;;11.45;2.97;;;;;;;7.22;82.45;101708.69;5053541;28;20032;-70
2022/10/21 07:38:13;;;;;;;12.27;4.35;;;;;;;7.98;80.23;101711.78;5036050;28;20135;-70
2022/10/21 07:40:40;;;;;;;11.48;4.13;;;;;;;8.98;75.13;101707.94;5052481;28;20391;-71
2022/10/21 07:43:06;;;;;;;10.48;2.65;;;;;;;8.89;73.69;101710.28;5052994;28;20058;-71
2022/10/21 07:45:32;;;;;;;10.43;2.72;;;;;;;8.33;74.65;101709.00;5052983;28;20029;-72
2022/10/21 07:47:58;;;;;;;10.25;2.10;;;;;;;8.11;75.54;101715.53;5052085;28;20128;-71
2022/10/21 07:50:24;;;;;;;5.82;1.92;;;;;;;8.04;75.16;101714.13;5053348;28;20108;-70
2022/10/21 07:52:49;;;;;;;16.20;2.45;;;;;;;7.84;76.23;101711.66;5053078;28;20081;-70
2022/10/21 07:55:16;;;;;;;6.50;2.15;;;;;;;7.86;76.07;101704.41;5052481;28;20017;-71
2022/10/21 07:57:43;;;;;;;7.85;2.00;;;;;;;7.95;75.93;101714.63;5053679;28;20037;-70
2022/10/21 08:00:10;;;;;;;7.78;2.00;;;;;;;7.91;76.35;101710.41;5052430;28;20446;-70
2022/10/21 08:02:37;;;;;;;6.63;2.20;;;;;;;7.96;75.74;101719.03;5053400;28;20036;-70
2022/10/21 08:05:03;;;;;;;4.18;2.40;;;;;;;7.93;75.78;101711.19;5051763;28;20039;-69
2022/10/21 08:07:33;;;;;;;12.02;2.35;;;;;;;7.82;75.96;101709.06;5051939;28;20485;-70
2022/10/21 08:09:59;;;;;;;13.20;4.15;;;;;;;7.90;76.60;101705.13;5053033;28;20032;-70
2022/10/21 08:12:25;;;;;;;11.60;3.28;;;;;;;7.91;76.24;101710.41;5052950;28;20072;-70
2022/10/21 08:14:51;;;;;;;8.77;3.53;;;;;;;7.84;76.24;101707.19;5053029;28;20056;-71
2022/10/21 08:17:16;;;;;;;18.48;4.53;;;;;;;7.66;77.30;101707.28;5052743;28;20032;-71
2022/10/21 08:19:42;;;;;;;14.32;3.17;;;;;;;7.90;75.79;101705.13;5051398;28;20037;-70
2022/10/21 08:22:08;;;;;;;8.23;2.97;;;;;;;8.09;74.62;101706.72;5052656;28;20086;-70
2022/10/21 08:24:34;;;;;;;8.40;3.05;;;;;;;7.95;75.06;101703.94;5051627;28;20120;-69
2022/10/21 08:27:00;;;;;;;9.63;2.13;;;;;;;7.88;75.28;101707.00;5051215;28;20044;-70
2022/10/21 08:29:26;;;;;;;9.13;3.42;;;;;;;8.04;73.88;101700.72;5052725;28;20028;-69
2022/10/21 08:31:52;;;;;;;4.18;2.28;;;;;;;8.06;74.07;101701.53;5052705;28;20033;-70
2022/10/21 08:34:17;;;;;;;8.23;2.30;;;;;;;7.95;74.59;101709.28;5052231;28;20099;-70
2022/10/21 08:36:43;;;;;;;8.00;2.13;;;;;;;8.12;74.33;101700.34;5052583;28;20029;-69
2022/10/21 08:39:09;;;;;;;1.77;1.00;;;;;;;8.26;71.20;101696.91;5051518;28;20378;-69
2022/10/21 08:42:07;;;;;;;3.35;1.13;;;;;;;8.39;71.18;101692.59;5052861;28;20032;-69
2022/10/21 08:44:58;;;;;;;2.38;1.30;;;;;;;8.19;71.95;101695.50;5052809;28;20107;-70
2022/10/21 08:47:33;;;;;;;13.68;2.25;;;;;;;8.14;72.06;101693.94;5050927;28;20106;-69
2022/10/21 08:50:09;;;;;;;5.18;1.38;;;;;;;8.45;70.99;101697.63;5050552;28;20421;-69
2022/10/21 08:52:47;;;;;;;6.10;1.63;;;;;;;8.42;71.06;101695.13;5052261;28;20431;-68
2022/10/21 08:55:26;;;;;;;2.60;1.02;;;;;;;8.56;69.35;101700.53;5052041;28;20028;-70
2022/10/21 08:57:53;;;;;;;6.90;1.33;;;;;;;8.80;67.78;101687.56;5050062;28;20107;-71
2022/10/21 09:00:23;;;;;;;1.55;0.93;;;;;;;9.73;64.84;101679.25;5052038;28;20078;-72
2022/10/21 09:03:08;;;;;;;2.45;1.55;;;;;;;10.38;62.27;101682.31;5050862;28;20037;-71
2022/10/21 09:05:45;;;;;;;;;;;;;;;10.23;61.99;101673.41;5051923;28;20048;-70
2022/10/21 09:08:23;;;;;;;5.30;1.20;;;;;;;10.62;61.90;101669.09;5051781;28;19917;-72
2022/10/21 09:10:58;;;;;;;1.88;1.20;;;;;;;11.26;59.94;101666.63;5050413;28;20139;-70
2022/10/21 09:13:38;;;;;;;3.50;1.73;;;;;;;11.13;60.81;101672.81;5050018;28;20040;-68
2022/10/21 09:16:09;;;;;;;5.70;1.85;;;;;;;11.14;59.46;101660.22;5051678;28;20025;-67
2022/10/21 09:19:19;;;;;;;4.78;1.60;;;;;;;10.50;61.37;101670.78;5051773;28;20390;-65
2022/10/21 09:22:25;;;;;;;11.20;2.08;;;;;;;10.54;61.89;101666.91;5028841;28;20122;-67
2022/10/21 09:24:58;;;;;;;3.42;1.63;;;;;;;11.10;60.95;101664.97;5050070;28;20041;-67
2022/10/21 09:27:24;;;;;;;5.35;1.70;;;;;;;10.63;60.91;101667.28;5050086;28;20037;-67
2022/10/21 09:29:57;;;;;;;8.90;1.45;;;;;;;10.23;62.81;101667.16;5051491;28;20060;-66
2022/10/21 09:32:29;;;;;;;4.60;2.08;;;;;;;10.46;61.96;101658.50;5050168;28;20032;-66
2022/10/21 09:35:29;;;;;;;7.55;3.22;;;;;;;10.33;62.42;101654.88;5051539;28;20024;-68
2022/10/21 09:38:01;;;;;;;3.70;2.00;;;;;;;10.11;63.71;101651.81;5038748;28;20048;-66
2022/10/21 09:40:29;;;;;;;6.75;2.30;;;;;;;10.09;63.98;101648.38;5049423;28;20029;-67
2022/10/21 09:42:58;;;;;;;9.82;2.10;;;;;;;10.19;63.94;101638.75;5051228;28;20067;-68
2022/10/21 09:45:34;;;;;;;5.32;2.60;;;;;;;9.89;65.04;101642.41;5050029;28;20124;-72
2022/10/21 09:48:23;;;;;;;6.55;2.10;;;;;;;10.28;63.08;101643.56;5050898;28;20029;-66
2022/10/21 09:50:57;;;;;;;21.75;5.13;;;;;;;10.31;63.03;101642.50;5051248;28;20029;-68
2022/10/21 09:53:28;;;;;;;8.25;2.40;;;;;;;10.00;64.49;101646.25;5048987;28;20056;-67
2022/10/21 09:56:02;;;;;;;4.93;1.77;;;;;;;10.63;61.33;101638.56;5049520;28;20471;-67
2022/10/21 09:58:48;;;;;;;;;;;;;;;10.66;60.50;101642.88;5051239;28;20111;-68
2022/10/21 10:01:17;;;;;;;6.88;2.70;;;;;;;10.63;61.14;101649.31;5050949;28;19952;-67
2022/10/21 10:03:46;;;;;;;6.32;2.00;;;;;;;10.45;62.19;101643.34;5049410;28;20111;-66
2022/10/21 10:06:12;;;;;;;6.63;2.15;;;;;;;10.93;61.33;101642.84;5050537;28;20033;-69
2022/10/21 10:08:41;;;;;;;7.20;4.22;;;;;;;11.88;56.91;101650.59;5050486;28;20041;-68
2022/10/21 10:11:09;;;;;;;8.43;7.03;;;;;;;11.75;56.38;101643.34;5054374;28;20041;-68
2022/10/21 10:13:52;;;;;;;3.42;2.22;;;;;;;11.92;56.26;101636.78;5053743;28;20082;-68
2022/10/21 10:16:25;;;;;;;2.28;1.63;;;;;;;11.89;55.93;101631.59;5053090;28;20545;-69
2022/10/21 10:19:09;;;;;;;3.28;1.10;;;;;;;11.84;56.10;101632.94;5055104;28;20028;-67
2022/10/21 10:21:35;;;;;;;2.22;1.30;;;;;;;12.05;56.34;101625.97;5053428;28;20123;-67
2022/10/21 10:24:01;;;;;;;6.30;2.58;;;;;;;11.46;57.45;101623.00;5055266;28;20064;-69
2022/10/21 10:26:31;;;;;;;1.95;1.00;;;;;;;12.02;56.72;101620.81;5054123;28;20029;-68
2022/10/21 10:29:07;;;;;;;3.75;1.70;;;;;;;12.15;55.32;101618.97;5055917;28;20037;-70
2022/10/21 10:31:34;;;;;;;3.95;1.55;;;;;;;12.17;55.90;101611.63;5055071;28;20090;-69
2022/10/21 10:34:07;;;;;;;4.78;1.50;;;;;;;12.28;55.27;101610.84;5054758;28;20032;-67
2022/10/21 10:36:38;;;;;;;2.95;1.70;;;;;;;11.10;58.04;101605.75;5053525;28;20076;-69
2022/10/21 10:39:15;;;;;;;6.63;1.75;;;;;;;11.11;58.59;101604.78;5053439;28;20442;-68
2022/10/21 10:41:46;;;;;;;4.95;2.15;;;;;;;11.68;56.51;101609.75;5053181;28;20094;-67
2022/10/21 10:44:35;;;;;;;3.38;1.40;;;;;;;11.89;56.41;101603.81;5054921;28;20025;-69
2022/10/21 10:47:03;;;;;;;4.60;1.48;;;;;;;11.27;57.80;101601.03;5053145;28;20090;-67
2022/10/21 10:49:41;;;;;;;2.15;1.10;;;;;;;11.36;58.61;101605.75;5053653;28;20064;-67
2022/10/21 10:52:20;;;;;;;4.85;1.83;;;;;;;11.69;57.84;101606.06;5054485;28;20081;-67
2022/10/21 10:54:46;;;;;;;3.45;1.15;;;;;;;11.61;57.90;101605.78;5052946;28;20047;-69
2022/10/21 10:57:19;;;;;;;3.00;0.90;;;;;;;11.38;56.88;101609.19;5052548;28;20381;-67
2022/10/21 11:00:10;;;;;;;2.15;0.70;;;;;;;11.29;57.70;101599.09;5052623;28;20036;-67
2022/10/21 11:02:52;;;;;;;3.53;1.00;;;;;;;11.07;58.06;101597.88;5051261;28;20024;-69
2022/10/21 11:05:25;;;;;;;2.22;0.82;;;;;;;11.07;58.31;101595.19;5053495;28;20083;-68
2022/10/21 11:07:53;;;;;;;2.78;0.65;;;;;;;10.98;58.74;101608.41;5052984;28;20572;-68
2022/10/21 11:10:42;;;;;;;2.13;0.80;;;;;;;10.77;59.46;101602.69;5054311;28;20054;-68
2022/10/21 11:13:20;;;;;;;2.55;0.93;;;;;;;10.97;59.64;101598.63;5052350;28;20033;-68
2022/10/21 11:16:18;;;;;;;4.63;0.60;;;;;;;10.44;60.57;101606.66;5052629;28;20118;-67
2022/10/21 11:19:19;;;;;;;0.65;0.43;;;;;;;10.33;60.81;101598.44;5054132;28;20048;-67
2022/10/21 11:21:53;;;;;;;2.47;0.77;;;;;;;10.48;60.89;101594.72;5043999;28;20061;-68
2022/10/21 11:24:50;;;;;;;3.77;1.17;;;;;;;10.50;61.09;101590.09;5052268;28;20032;-67
2022/10/21 11:27:21;;;;;;;2.55;1.00;;;;;;;10.48;61.49;101597.41;5052072;28;20274;-68
2022/10/21 11:29:55;;;;;;;2.47;1.17;;;;;;;10.64;60.04;101585.63;5052732;28;20029;-69
2022/10/21 11:32:55;;;;;;;4.50;1.02;;;;;;;10.69;60.44;101588.88;5053075;28;20087;-68
2022/10/21 11:35:32;;;;;;;5.30;1.70;;;;;;;10.66;60.07;101589.94;5051912;28;20124;-68
2022/10/21 11:38:42;;;;;;;3.53;1.38;;;;;;;10.72;61.18;101583.28;5052376;28;20035;-68
2022/10/21 11:41:26;;;;;;;3.85;1.58;;;;;;;10.24;62.04;101588.25;5053296;28;20053;-67
2022/10/21 11:44:05;;;;;;;1.80;0.97;;;;;;;10.50;61.70;101573.13;5053627;28;20032;-69
2022/10/21 11:46:43;;;;;;;2.17;0.88;;;;;;;10.64;61.51;101578.44;5052389;28;20035;-69
2022/10/21 11:49:47;;;;;;;2.78;1.25;;;;;;;10.60;62.80;101579.59;5052053;28;20060;-67